Giddyap — WDF7334 — position and weather

sailwx.info

Track history (hours):
 
Tides and Currents Weather Stations Pressure Air Temp Water Temp Dewpoint Dewpoint Depression Visibility Wind Speed Wind Dir Waves Ship Positions

Giddyap

Owner: Giddyap LLC, Palm Beach, FL. More information available from US FCC via Universal Licensing System and Coast Guard Vessel Documentation Center.

Last reported at 2017-Feb-28 16:33 UTC. Time now 2017-Jun-27 19:09 UTC.
Position N 25°55' W 080°06'.
Warning: this ship's position is months out of date.

Length 25 m.

Type: Pleasure craft. MMSI: 367483440.

Date/timePositionNaut miles runAvg speedWind from/ knotsBaromVisibWave heightAir tempDewpointWater temp
2017-Feb-28 16:33N 25°55' W 080°06'8 0.5
2017-Feb-28 00:31N 25°46' W 080°08'0 0.0
2017-Feb-27 22:09N 25°46' W 080°08'0 0.0
2017-Feb-27 21:33N 25°46' W 080°08'  
2017-Feb-24 16:32N 25°42' W 080°07'5 4.9
2017-Feb-24 15:34N 25°46' W 080°08'0 0.0
2017-Feb-24 14:31N 25°46' W 080°08'0 0.0
2017-Feb-23 21:09N 25°46' W 080°08'0 0.0
2017-Feb-23 20:33N 25°46' W 080°08'0 0.0
2017-Feb-23 19:33N 25°46' W 080°08'0 0.0
2017-Feb-23 18:33N 25°46' W 080°08'0 0.1
2017-Feb-23 17:31N 25°46' W 080°09'0 0.0
2017-Feb-23 16:31N 25°46' W 080°09'0 0.0
2017-Feb-23 15:31N 25°46' W 080°09'0 0.0
2017-Feb-23 14:31N 25°46' W 080°09'0 0.0
2017-Feb-23 13:25N 25°46' W 080°09'0 0.0
2017-Feb-23 12:31N 25°46' W 080°09'0 0.0
2017-Feb-23 11:31N 25°46' W 080°09'0 0.0
2017-Feb-23 10:31N 25°46' W 080°09'0 0.0
2017-Feb-23 09:31N 25°46' W 080°09'0 0.0
2017-Feb-23 08:31N 25°46' W 080°09'0 0.0
2017-Feb-23 07:31N 25°46' W 080°09'0 0.0
2017-Feb-23 06:31N 25°46' W 080°09'0 0.0
2017-Feb-23 05:31N 25°46' W 080°09'0 0.0
2017-Feb-23 04:31N 25°46' W 080°09'0 0.0
2017-Feb-23 03:31N 25°46' W 080°09'0 0.0
2017-Feb-23 02:31N 25°46' W 080°09'0 0.0
2017-Feb-23 01:31N 25°46' W 080°09'0 0.0
2017-Feb-23 00:31N 25°46' W 080°09'0 0.0
2017-Feb-22 23:31N 25°46' W 080°09'0 0.0
2017-Feb-22 22:31N 25°46' W 080°09'0 0.0
2017-Feb-22 21:31N 25°46' W 080°09'0 0.0
2017-Feb-22 20:31N 25°46' W 080°09'0 0.0
2017-Feb-22 19:31N 25°46' W 080°09'0 0.0
2017-Feb-22 18:31N 25°46' W 080°09'0 0.0
2017-Feb-22 17:31N 25°46' W 080°09'0 0.0
2017-Feb-22 16:31N 25°46' W 080°09'0 0.0
2017-Feb-22 15:31N 25°46' W 080°09'0 0.0
2017-Feb-21 19:32N 25°46' W 080°09'1 1.4
2017-Feb-21 18:33N 25°47' W 080°10'2 1.7
2017-Feb-21 17:33N 25°48' W 080°11'5 4.7
2017-Feb-21 16:33N 25°53' W 080°09'2 2.0
2017-Feb-21 15:19N 25°51' W 080°07'1 0.9
2017-Feb-21 14:27N 25°50' W 080°07'0 0.3
2017-Feb-21 13:29N 25°49' W 080°07'0 0.0
2017-Feb-21 12:29N 25°49' W 080°07'0 0.0
2017-Feb-21 11:29N 25°49' W 080°07'0 0.0
2017-Feb-21 10:32N 25°49' W 080°07'0 0.0
2017-Feb-21 09:32N 25°49' W 080°07'0 0.0
2017-Feb-21 08:17N 25°49' W 080°07'0 0.0
2017-Feb-21 07:17N 25°49' W 080°07'0 0.0
2017-Feb-21 06:32N 25°49' W 080°07'0 0.0
2017-Feb-21 05:20N 25°49' W 080°07'0 0.0
2017-Feb-21 04:23N 25°49' W 080°07'0 0.0
2017-Feb-21 03:23N 25°49' W 080°07'0 0.0
2017-Feb-21 02:23N 25°49' W 080°07'0 0.0
2017-Feb-21 01:29N 25°49' W 080°07'0 0.0
2017-Feb-21 00:26N 25°49' W 080°07'0 0.0
2017-Feb-20 23:29N 25°49' W 080°07'0 0.0
2017-Feb-20 22:32N 25°49' W 080°07'0 0.0
2017-Feb-20 21:29N 25°49' W 080°07'0 0.0
2017-Feb-20 19:20N 25°49' W 080°07'0 0.0
2017-Feb-20 18:17N 25°49' W 080°07'0 0.0
2017-Feb-20 17:32N 25°49' W 080°07'0 0.0
2017-Feb-20 16:32N 25°49' W 080°07'0 0.0
2017-Feb-20 15:05N 25°49' W 080°07'0 0.0
2017-Feb-20 14:23N 25°49' W 080°07'0 0.0
2017-Feb-20 12:26N 25°49' W 080°07'0 0.0
2017-Feb-20 11:29N 25°49' W 080°07'0 0.0
2017-Feb-20 10:26N 25°49' W 080°07'0 0.0
2017-Feb-20 09:29N 25°49' W 080°07'0 0.0
2017-Feb-20 08:32N 25°49' W 080°07'0 0.0
2017-Feb-20 07:32N 25°49' W 080°07'0 0.0
2017-Feb-20 06:32N 25°49' W 080°07'0 0.0
2017-Feb-20 05:32N 25°49' W 080°07'0 0.0
2017-Feb-20 04:32N 25°49' W 080°07'0 0.0
2017-Feb-20 03:32N 25°49' W 080°07'0 0.0
2017-Feb-20 02:17N 25°49' W 080°07'0 0.0
2017-Feb-20 01:23N 25°49' W 080°07'0 0.0
2017-Feb-20 00:23N 25°49' W 080°07'0 0.0
2017-Feb-19 23:08N 25°49' W 080°07'0 0.0
2017-Feb-19 22:11N 25°49' W 080°07'0 0.0
2017-Feb-19 21:29N 25°49' W 080°07'0 0.0
2017-Feb-19 20:29N 25°49' W 080°07'0 0.0
2017-Feb-19 19:26N 25°49' W 080°07'0 0.0
2017-Feb-19 18:17N 25°49' W 080°07'0 0.0
2017-Feb-19 17:32N 25°49' W 080°07'0 0.0
2017-Feb-19 16:20N 25°49' W 080°07'0 0.0
2017-Feb-19 15:29N 25°49' W 080°07'0 0.0
2017-Feb-19 14:20N 25°49' W 080°07'0 0.0
2017-Feb-19 13:20N 25°49' W 080°07'0 0.0
2017-Feb-19 12:17N 25°49' W 080°07'0 0.0
2017-Feb-19 11:05N 25°49' W 080°07'0 0.0
2017-Feb-19 10:26N 25°49' W 080°07'0 0.0
2017-Feb-19 09:23N 25°49' W 080°07'0 0.0
2017-Feb-19 08:14N 25°49' W 080°07'0 0.0
2017-Feb-19 07:29N 25°49' W 080°07'0 0.0
2017-Feb-19 06:29N 25°49' W 080°07'0 0.0
2017-Feb-19 05:29N 25°49' W 080°07'0 0.0
2017-Feb-19 04:32N 25°49' W 080°07'0 0.0
2017-Feb-19 02:32N 25°49' W 080°07'0 0.0
2017-Feb-19 01:32N 25°49' W 080°07'0 0.0
2017-Feb-19 00:32N 25°49' W 080°07'0 0.0
2017-Feb-18 23:23N 25°49' W 080°07'0 0.0
2017-Feb-18 22:32N 25°49' W 080°07'0 0.0
2017-Feb-18 21:23N 25°49' W 080°07'0 0.0
2017-Feb-18 20:26N 25°49' W 080°07'0 0.0
2017-Feb-18 19:11N 25°49' W 080°07'0 0.0
2017-Feb-18 18:26N 25°49' W 080°07'0 0.0
2017-Feb-18 17:11N 25°49' W 080°07'  
Track history (hours):
 
Tides and Currents Weather Stations Pressure Air Temp Water Temp Dewpoint Dewpoint Depression Visibility Wind Speed Wind Dir Waves Ship Positions

Giddyap

Owner: Giddyap LLC, Palm Beach, FL. More information available from US FCC via Universal Licensing System and Coast Guard Vessel Documentation Center.

Last reported at 2017-Feb-28 16:33 UTC. Time now 2017-Jun-27 19:09 UTC.
Position N 25°55' W 080°06'.
Warning: this ship's position is months out of date.

Length 25 m.

Type: Pleasure craft. MMSI: 367483440.

Date/timePositionNaut miles runAvg speedWind from/ knotsBaromVisibWave heightAir tempDewpointWater temp
2017-Feb-28 16:33N 25°55' W 080°06'8 0.5
2017-Feb-28 00:31N 25°46' W 080°08'0 0.0
2017-Feb-27 22:09N 25°46' W 080°08'0 0.0
2017-Feb-27 21:33N 25°46' W 080°08'  
2017-Feb-24 16:32N 25°42' W 080°07'5 4.9
2017-Feb-24 15:34N 25°46' W 080°08'0 0.0
2017-Feb-24 14:31N 25°46' W 080°08'0 0.0
2017-Feb-23 21:09N 25°46' W 080°08'0 0.0
2017-Feb-23 20:33N 25°46' W 080°08'0 0.0
2017-Feb-23 19:33N 25°46' W 080°08'0 0.0
2017-Feb-23 18:33N 25°46' W 080°08'0 0.1
2017-Feb-23 17:31N 25°46' W 080°09'0 0.0
2017-Feb-23 16:31N 25°46' W 080°09'0 0.0
2017-Feb-23 15:31N 25°46' W 080°09'0 0.0
2017-Feb-23 14:31N 25°46' W 080°09'0 0.0
2017-Feb-23 13:25N 25°46' W 080°09'0 0.0
2017-Feb-23 12:31N 25°46' W 080°09'0 0.0
2017-Feb-23 11:31N 25°46' W 080°09'0 0.0
2017-Feb-23 10:31N 25°46' W 080°09'0 0.0
2017-Feb-23 09:31N 25°46' W 080°09'0 0.0
2017-Feb-23 08:31N 25°46' W 080°09'0 0.0
2017-Feb-23 07:31N 25°46' W 080°09'0 0.0
2017-Feb-23 06:31N 25°46' W 080°09'0 0.0
2017-Feb-23 05:31N 25°46' W 080°09'0 0.0
2017-Feb-23 04:31N 25°46' W 080°09'0 0.0
2017-Feb-23 03:31N 25°46' W 080°09'0 0.0
2017-Feb-23 02:31N 25°46' W 080°09'0 0.0
2017-Feb-23 01:31N 25°46' W 080°09'0 0.0
2017-Feb-23 00:31N 25°46' W 080°09'0 0.0
2017-Feb-22 23:31N 25°46' W 080°09'0 0.0
2017-Feb-22 22:31N 25°46' W 080°09'0 0.0
2017-Feb-22 21:31N 25°46' W 080°09'0 0.0
2017-Feb-22 20:31N 25°46' W 080°09'0 0.0
2017-Feb-22 19:31N 25°46' W 080°09'0 0.0
2017-Feb-22 18:31N 25°46' W 080°09'0 0.0
2017-Feb-22 17:31N 25°46' W 080°09'0 0.0
2017-Feb-22 16:31N 25°46' W 080°09'0 0.0
2017-Feb-22 15:31N 25°46' W 080°09'0 0.0
2017-Feb-21 19:32N 25°46' W 080°09'1 1.4
2017-Feb-21 18:33N 25°47' W 080°10'2 1.7
2017-Feb-21 17:33N 25°48' W 080°11'5 4.7
2017-Feb-21 16:33N 25°53' W 080°09'2 2.0
2017-Feb-21 15:19N 25°51' W 080°07'1 0.9
2017-Feb-21 14:27N 25°50' W 080°07'0 0.3
2017-Feb-21 13:29N 25°49' W 080°07'0 0.0
2017-Feb-21 12:29N 25°49' W 080°07'0 0.0
2017-Feb-21 11:29N 25°49' W 080°07'0 0.0
2017-Feb-21 10:32N 25°49' W 080°07'0 0.0
2017-Feb-21 09:32N 25°49' W 080°07'0 0.0
2017-Feb-21 08:17N 25°49' W 080°07'0 0.0
2017-Feb-21 07:17N 25°49' W 080°07'0 0.0
2017-Feb-21 06:32N 25°49' W 080°07'0 0.0
2017-Feb-21 05:20N 25°49' W 080°07'0 0.0
2017-Feb-21 04:23N 25°49' W 080°07'0 0.0
2017-Feb-21 03:23N 25°49' W 080°07'0 0.0
2017-Feb-21 02:23N 25°49' W 080°07'0 0.0
2017-Feb-21 01:29N 25°49' W 080°07'0 0.0
2017-Feb-21 00:26N 25°49' W 080°07'0 0.0
2017-Feb-20 23:29N 25°49' W 080°07'0 0.0
2017-Feb-20 22:32N 25°49' W 080°07'0 0.0
2017-Feb-20 21:29N 25°49' W 080°07'0 0.0
2017-Feb-20 19:20N 25°49' W 080°07'0 0.0
2017-Feb-20 18:17N 25°49' W 080°07'0 0.0
2017-Feb-20 17:32N 25°49' W 080°07'0 0.0
2017-Feb-20 16:32N 25°49' W 080°07'0 0.0
2017-Feb-20 15:05N 25°49' W 080°07'0 0.0
2017-Feb-20 14:23N 25°49' W 080°07'0 0.0
2017-Feb-20 12:26N 25°49' W 080°07'0 0.0
2017-Feb-20 11:29N 25°49' W 080°07'0 0.0
2017-Feb-20 10:26N 25°49' W 080°07'0 0.0
2017-Feb-20 09:29N 25°49' W 080°07'0 0.0
2017-Feb-20 08:32N 25°49' W 080°07'0 0.0
2017-Feb-20 07:32N 25°49' W 080°07'0 0.0
2017-Feb-20 06:32N 25°49' W 080°07'0 0.0
2017-Feb-20 05:32N 25°49' W 080°07'0 0.0
2017-Feb-20 04:32N 25°49' W 080°07'0 0.0
2017-Feb-20 03:32N 25°49' W 080°07'0 0.0
2017-Feb-20 02:17N 25°49' W 080°07'0 0.0
2017-Feb-20 01:23N 25°49' W 080°07'0 0.0
2017-Feb-20 00:23N 25°49' W 080°07'0 0.0
2017-Feb-19 23:08N 25°49' W 080°07'0 0.0
2017-Feb-19 22:11N 25°49' W 080°07'0 0.0
2017-Feb-19 21:29N 25°49' W 080°07'0 0.0
2017-Feb-19 20:29N 25°49' W 080°07'0 0.0
2017-Feb-19 19:26N 25°49' W 080°07'0 0.0
2017-Feb-19 18:17N 25°49' W 080°07'0 0.0
2017-Feb-19 17:32N 25°49' W 080°07'0 0.0
2017-Feb-19 16:20N 25°49' W 080°07'0 0.0
2017-Feb-19 15:29N 25°49' W 080°07'0 0.0
2017-Feb-19 14:20N 25°49' W 080°07'0 0.0
2017-Feb-19 13:20N 25°49' W 080°07'0 0.0
2017-Feb-19 12:17N 25°49' W 080°07'0 0.0
2017-Feb-19 11:05N 25°49' W 080°07'0 0.0
2017-Feb-19 10:26N 25°49' W 080°07'0 0.0
2017-Feb-19 09:23N 25°49' W 080°07'0 0.0
2017-Feb-19 08:14N 25°49' W 080°07'0 0.0
2017-Feb-19 07:29N 25°49' W 080°07'0 0.0
2017-Feb-19 06:29N 25°49' W 080°07'0 0.0
2017-Feb-19 05:29N 25°49' W 080°07'0 0.0
2017-Feb-19 04:32N 25°49' W 080°07'0 0.0
2017-Feb-19 02:32N 25°49' W 080°07'0 0.0
2017-Feb-19 01:32N 25°49' W 080°07'0 0.0
2017-Feb-19 00:32N 25°49' W 080°07'0 0.0
2017-Feb-18 23:23N 25°49' W 080°07'0 0.0
2017-Feb-18 22:32N 25°49' W 080°07'0 0.0
2017-Feb-18 21:23N 25°49' W 080°07'0 0.0
2017-Feb-18 20:26N 25°49' W 080°07'0 0.0
2017-Feb-18 19:11N 25°49' W 080°07'0 0.0
2017-Feb-18 18:26N 25°49' W 080°07'0 0.0
2017-Feb-18 17:11N 25°49' W 080°07'  

Dump ship's entire track history